createdAt,value
2018-08-28T00:01:19.650Z,99.90
2018-08-28T00:04:23.282Z,99.90
2018-08-28T00:07:26.921Z,99.90
2018-08-28T00:10:30.538Z,99.90
2018-08-28T00:13:34.203Z,99.90
2018-08-28T00:16:37.805Z,99.90
2018-08-28T00:19:41.439Z,99.90
2018-08-28T00:22:45.559Z,99.90
2018-08-28T00:25:49.197Z,99.90
2018-08-28T00:28:53.441Z,99.90
2018-08-28T00:31:57.073Z,99.90
2018-08-28T00:35:00.984Z,99.90
2018-08-28T00:38:04.618Z,99.90
2018-08-28T00:41:08.372Z,99.90
2018-08-28T00:44:12.045Z,99.90
2018-08-28T00:47:15.645Z,99.90
2018-08-28T00:50:19.277Z,99.90
2018-08-28T00:53:22.874Z,99.90
2018-08-28T00:56:26.498Z,99.90
2018-08-28T00:59:30.102Z,99.90
2018-08-28T01:02:33.759Z,99.90
2018-08-28T01:05:37.495Z,99.90
2018-08-28T01:08:41.198Z,99.90
2018-08-28T01:11:44.792Z,99.90
2018-08-28T01:14:48.758Z,99.90
2018-08-28T01:17:52.497Z,99.90
2018-08-28T01:20:56.157Z,99.90
2018-08-28T01:23:59.765Z,99.90
2018-08-28T01:27:03.443Z,99.90
2018-08-28T01:30:07.042Z,99.90
2018-08-28T01:33:10.669Z,99.90
2018-08-28T01:36:14.457Z,99.90
2018-08-28T01:39:18.258Z,99.90
2018-08-28T01:42:23.392Z,99.90
2018-08-28T01:45:27.048Z,99.90
2018-08-28T01:48:30.757Z,99.90
2018-08-28T01:51:34.373Z,99.90
2018-08-28T01:54:38.062Z,99.90
2018-08-28T01:57:41.683Z,99.90
2018-08-28T02:00:45.654Z,99.90
2018-08-28T02:03:49.561Z,99.90
2018-08-28T02:06:53.165Z,99.90
2018-08-28T02:09:56.884Z,99.90
2018-08-28T02:13:00.494Z,99.90
2018-08-28T02:16:04.117Z,99.90
2018-08-28T02:19:07.748Z,99.90
2018-08-28T02:22:11.417Z,99.90
2018-08-28T02:25:15.018Z,99.90
2018-08-28T02:28:18.673Z,99.90
2018-08-28T02:31:22.399Z,99.90
2018-08-28T02:34:26.067Z,99.90
2018-08-28T02:37:29.646Z,99.90
2018-08-28T02:40:33.290Z,99.90
2018-08-28T02:43:36.919Z,99.90
2018-08-28T02:46:40.543Z,99.90
2018-08-28T02:49:44.156Z,99.90
2018-08-28T02:52:47.779Z,99.90
2018-08-28T02:55:51.374Z,99.90
2018-08-28T02:58:55.252Z,99.90
2018-08-28T03:01:58.879Z,99.90
2018-08-28T03:05:02.525Z,99.90
2018-08-28T03:08:06.144Z,99.90
2018-08-28T03:11:09.804Z,99.90
2018-08-28T03:14:13.397Z,99.90
2018-08-28T03:17:17.974Z,99.90
2018-08-28T03:20:21.593Z,99.90
2018-08-28T03:23:25.230Z,99.90
2018-08-28T03:26:28.839Z,99.90
2018-08-28T03:29:32.774Z,99.90
2018-08-28T03:32:36.450Z,99.90
2018-08-28T03:35:40.090Z,99.90
2018-08-28T03:38:43.710Z,99.90
2018-08-28T03:41:47.338Z,99.90
2018-08-28T03:44:51.209Z,99.90
2018-08-28T03:47:54.709Z,99.90
2018-08-28T03:50:58.441Z,99.90
2018-08-28T03:54:02.061Z,99.90
2018-08-28T03:57:05.709Z,99.90
2018-08-28T04:00:09.343Z,99.90
2018-08-28T04:03:12.975Z,99.90
2018-08-28T04:06:16.613Z,99.90
2018-08-28T04:09:20.221Z,99.90
2018-08-28T04:12:23.875Z,99.90
2018-08-28T04:15:27.521Z,99.90
2018-08-28T04:18:31.145Z,99.90
2018-08-28T04:21:34.822Z,99.90
2018-08-28T04:24:38.442Z,99.90
2018-08-28T04:27:42.053Z,99.90
2018-08-28T04:30:45.754Z,99.90
2018-08-28T04:33:49.303Z,99.90
2018-08-28T04:36:52.935Z,99.90
2018-08-28T04:39:56.741Z,99.90
2018-08-28T04:43:00.397Z,99.90
2018-08-28T04:46:03.996Z,99.90
2018-08-28T04:49:07.617Z,99.90
2018-08-28T04:52:11.233Z,99.90
2018-08-28T04:55:14.863Z,99.90
2018-08-28T04:58:18.465Z,99.90
2018-08-28T05:01:22.098Z,99.90
2018-08-28T05:04:25.703Z,99.90
2018-08-28T05:07:29.329Z,99.90
2018-08-28T05:10:32.926Z,99.90
2018-08-28T05:13:36.572Z,99.90
2018-08-28T05:16:40.186Z,99.90
2018-08-28T05:19:43.827Z,99.90
2018-08-28T05:22:47.607Z,99.90
2018-08-28T05:25:51.234Z,99.90
2018-08-28T05:28:54.842Z,99.90
2018-08-28T05:31:58.935Z,99.90
2018-08-28T05:35:02.556Z,99.90
2018-08-28T05:38:06.206Z,99.90
2018-08-28T05:41:09.950Z,99.90
2018-08-28T05:44:13.589Z,99.90
2018-08-28T05:47:17.198Z,99.90
2018-08-28T05:50:20.834Z,99.90
2018-08-28T05:53:24.690Z,99.90
2018-08-28T05:56:28.309Z,99.90
2018-08-28T05:59:31.908Z,99.90
2018-08-28T06:02:35.543Z,99.90
2018-08-28T06:05:39.178Z,99.90
2018-08-28T06:08:42.816Z,99.90
2018-08-28T06:11:46.594Z,99.90
2018-08-28T06:14:50.264Z,99.90
2018-08-28T06:17:53.940Z,99.90
2018-08-28T06:20:57.592Z,99.90
2018-08-28T06:24:01.217Z,99.90
2018-08-28T06:27:04.850Z,99.90
2018-08-28T06:30:08.478Z,99.90
2018-08-28T06:33:12.117Z,99.90
2018-08-28T06:36:15.767Z,99.90
2018-08-28T06:39:19.423Z,99.90
2018-08-28T06:42:23.039Z,99.90
2018-08-28T06:45:26.683Z,99.90
2018-08-28T06:48:30.299Z,99.90
2018-08-28T06:51:33.947Z,99.90
2018-08-28T06:54:40.761Z,99.90
2018-08-28T06:57:44.409Z,99.90
2018-08-28T07:00:48.103Z,99.90
2018-08-28T07:03:51.796Z,99.90
2018-08-28T07:06:55.409Z,99.90
2018-08-28T07:09:59.047Z,99.90
2018-08-28T07:13:02.671Z,99.20
2018-08-28T07:16:06.725Z,98.20
2018-08-28T07:19:10.458Z,98.60
2018-08-28T07:22:14.091Z,98.30
2018-08-28T07:25:17.714Z,98.30
2018-08-28T07:28:21.369Z,98.10
2018-08-28T07:31:25.070Z,97.70
2018-08-28T07:34:28.634Z,97.80
2018-08-28T07:37:32.342Z,98.00
2018-08-28T07:40:35.947Z,97.60
2018-08-28T07:43:39.571Z,97.60
2018-08-28T07:46:43.296Z,97.80
2018-08-28T07:49:46.899Z,97.60
2018-08-28T07:52:50.543Z,97.10
2018-08-28T07:55:54.133Z,96.80
2018-08-28T07:58:57.801Z,96.70
2018-08-28T08:02:01.475Z,96.60
2018-08-28T08:05:05.106Z,95.60
2018-08-28T08:08:08.722Z,95.90
2018-08-28T08:11:12.349Z,96.00
2018-08-28T08:14:15.956Z,95.70
2018-08-28T08:17:19.582Z,95.70
2018-08-28T08:20:23.532Z,96.00
2018-08-28T08:23:27.634Z,95.70
2018-08-28T08:26:31.270Z,95.40
2018-08-28T08:29:35.293Z,95.30
2018-08-28T08:32:38.901Z,95.40
2018-08-28T08:35:42.585Z,95.20
2018-08-28T08:38:46.224Z,95.10
2018-08-28T08:41:49.880Z,94.80
2018-08-28T08:44:53.486Z,94.70
2018-08-28T08:47:57.114Z,94.60
2018-08-28T08:51:00.713Z,94.80
2018-08-28T08:54:04.340Z,95.40
2018-08-28T08:57:07.990Z,95.30
2018-08-28T09:00:11.875Z,95.00
2018-08-28T09:03:15.493Z,94.30
2018-08-28T09:06:19.138Z,93.50
2018-08-28T09:09:22.753Z,93.70
2018-08-28T09:12:26.451Z,93.30
2018-08-28T09:15:30.054Z,93.80
2018-08-28T09:18:33.681Z,93.70
2018-08-28T09:21:37.325Z,93.90
2018-08-28T09:24:40.950Z,93.90
2018-08-28T09:27:44.626Z,94.10
2018-08-28T09:30:48.270Z,93.80
2018-08-28T09:33:51.875Z,93.50
2018-08-28T09:36:55.502Z,93.50
2018-08-28T09:39:59.129Z,93.20
2018-08-28T09:43:02.745Z,92.80
2018-08-28T09:46:06.365Z,92.30
2018-08-28T09:49:10.026Z,93.20
2018-08-28T09:52:13.638Z,93.50
2018-08-28T09:55:17.258Z,92.80
2018-08-28T09:58:20.865Z,92.10
2018-08-28T10:04:51.020Z,91.50
2018-08-28T10:07:54.833Z,91.10
2018-08-28T10:10:58.370Z,91.30
2018-08-28T10:14:02.038Z,90.70
2018-08-28T10:17:05.743Z,90.70
2018-08-28T10:20:09.412Z,90.90
2018-08-28T10:23:13.044Z,91.70
2018-08-28T10:26:16.647Z,91.00
2018-08-28T10:29:20.275Z,90.80
2018-08-28T10:32:23.882Z,90.80
2018-08-28T10:35:27.514Z,91.20
2018-08-28T10:38:31.375Z,91.00
2018-08-28T10:41:35.068Z,90.30
2018-08-28T10:44:38.651Z,90.00
2018-08-28T10:47:42.333Z,88.70
2018-08-28T10:50:45.951Z,88.50
2018-08-28T10:53:49.606Z,88.10
2018-08-28T10:56:53.219Z,87.70
2018-08-28T10:59:56.862Z,87.30
2018-08-28T11:03:00.481Z,88.50
2018-08-28T11:06:04.139Z,88.30
2018-08-28T11:09:07.748Z,89.10
2018-08-28T11:12:11.366Z,89.70
2018-08-28T11:15:15.055Z,90.30
2018-08-28T11:18:18.799Z,90.00
2018-08-28T11:21:22.388Z,89.20
2018-08-28T11:24:26.028Z,89.40
2018-08-28T11:27:29.662Z,89.50
2018-08-28T11:30:33.300Z,88.90
2018-08-28T11:33:36.952Z,89.10
2018-08-28T11:36:40.583Z,88.80
2018-08-28T11:39:44.200Z,88.40
2018-08-28T11:42:47.865Z,87.90
2018-08-28T11:45:51.483Z,89.20
2018-08-28T11:48:55.119Z,88.90
2018-08-28T11:51:58.826Z,88.60
2018-08-28T11:55:02.419Z,88.20
2018-08-28T11:58:06.294Z,88.10
2018-08-28T12:01:09.942Z,87.50
2018-08-28T12:04:13.560Z,88.30
2018-08-28T12:07:17.221Z,88.60
2018-08-28T12:10:20.845Z,88.90
2018-08-28T12:13:24.450Z,89.00
2018-08-28T12:16:28.067Z,88.90
2018-08-28T12:19:31.817Z,88.80
2018-08-28T12:22:35.476Z,88.80
2018-08-28T12:25:39.123Z,89.20
2018-08-28T12:28:42.782Z,88.50
2018-08-28T12:31:46.646Z,88.40
2018-08-28T12:34:50.299Z,88.00
2018-08-28T12:37:53.926Z,87.80
2018-08-28T12:40:57.549Z,87.70
2018-08-28T12:44:01.314Z,87.10
2018-08-28T12:47:04.799Z,87.10
2018-08-28T12:50:09.272Z,87.10
2018-08-28T12:53:12.866Z,87.60
2018-08-28T12:56:16.526Z,87.70
2018-08-28T12:59:20.139Z,87.50
2018-08-28T13:02:24.156Z,88.00
2018-08-28T13:05:27.668Z,88.60
2018-08-28T13:08:31.307Z,89.00
2018-08-28T13:11:34.935Z,88.30
2018-08-28T13:14:38.728Z,88.10
2018-08-28T13:17:42.325Z,87.90
2018-08-28T13:20:45.958Z,87.50
2018-08-28T13:23:49.639Z,87.30
2018-08-28T13:26:53.250Z,87.50
2018-08-28T13:29:56.883Z,86.10
2018-08-28T13:33:00.525Z,85.10
2018-08-28T13:36:04.125Z,86.20
2018-08-28T13:39:08.058Z,86.90
2018-08-28T13:42:11.630Z,87.40
2018-08-28T13:45:15.263Z,87.70
2018-08-28T13:48:18.933Z,87.00
2018-08-28T13:51:22.671Z,86.70
2018-08-28T13:54:26.329Z,86.60
2018-08-28T13:57:29.896Z,86.50
2018-08-28T14:00:33.741Z,85.90
2018-08-28T14:03:37.469Z,85.80
2018-08-28T14:06:41.081Z,86.10
2018-08-28T14:09:44.720Z,87.10
2018-08-28T14:12:48.388Z,87.40
2018-08-28T14:15:51.977Z,87.20
2018-08-28T14:18:55.607Z,87.70
2018-08-28T14:21:59.244Z,88.40
2018-08-28T14:25:02.883Z,89.30
2018-08-28T14:28:06.531Z,89.10
2018-08-28T14:31:10.184Z,88.90
2018-08-28T14:34:13.812Z,89.40
2018-08-28T14:37:17.467Z,89.20
2018-08-28T14:43:47.094Z,89.00
2018-08-28T14:46:50.747Z,88.30
2018-08-28T14:49:54.581Z,88.30
2018-08-28T14:52:57.999Z,88.40
2018-08-28T14:56:01.644Z,88.10
2018-08-28T14:59:05.263Z,87.70
2018-08-28T15:02:08.909Z,87.90
2018-08-28T15:05:12.547Z,88.40
2018-08-28T15:08:16.170Z,87.50
2018-08-28T15:11:19.798Z,86.80
2018-08-28T15:14:23.655Z,87.00
2018-08-28T15:17:27.535Z,88.00
2018-08-28T15:20:31.155Z,88.60
2018-08-28T15:23:34.783Z,88.30
2018-08-28T15:26:38.446Z,88.00
2018-08-28T15:29:42.078Z,88.10
2018-08-28T15:32:45.759Z,88.60
2018-08-28T15:35:49.531Z,88.60
2018-08-28T15:42:03.079Z,88.10
2018-08-28T15:45:06.853Z,87.90
2018-08-28T15:48:10.708Z,87.60
2018-08-28T15:51:14.411Z,87.90
2018-08-28T15:54:18.067Z,88.00
2018-08-28T15:57:21.664Z,86.80
2018-08-28T16:00:25.681Z,87.30
2018-08-28T16:03:29.282Z,88.00
2018-08-28T16:06:32.906Z,88.70
2018-08-28T16:09:36.625Z,89.40
2018-08-28T16:12:40.598Z,89.30
2018-08-28T16:15:44.187Z,89.50
2018-08-28T16:18:47.826Z,89.20
2018-08-28T16:21:53.631Z,89.50
2018-08-28T16:24:57.238Z,90.10
2018-08-28T16:28:00.904Z,90.10
2018-08-28T16:31:04.546Z,90.20
2018-08-28T16:34:09.568Z,90.60
2018-08-28T16:37:13.292Z,90.30
2018-08-28T16:40:16.834Z,90.50
2018-08-28T16:43:20.462Z,90.20
2018-08-28T16:46:24.095Z,90.10
2018-08-28T16:49:27.751Z,90.00
2018-08-28T16:52:31.453Z,90.10
2018-08-28T16:55:35.045Z,90.10
2018-08-28T16:58:38.718Z,90.10
2018-08-28T17:01:42.465Z,89.80
2018-08-28T17:04:45.968Z,89.70
2018-08-28T17:07:49.566Z,90.20
2018-08-28T17:10:53.210Z,90.60
2018-08-28T17:13:56.835Z,90.40
2018-08-28T17:17:00.473Z,90.50
2018-08-28T17:20:04.073Z,90.70
2018-08-28T17:23:07.731Z,90.70
2018-08-28T17:26:11.359Z,90.90
2018-08-28T17:29:14.988Z,90.70
2018-08-28T17:32:18.590Z,91.00
2018-08-28T17:35:22.229Z,90.90
2018-08-28T17:38:25.828Z,91.20
2018-08-28T17:41:29.552Z,91.50
2018-08-28T17:44:33.130Z,92.10
2018-08-28T17:47:36.858Z,92.60
2018-08-28T17:50:40.434Z,92.90
2018-08-28T17:53:44.053Z,93.10
2018-08-28T17:56:47.799Z,93.60
2018-08-28T17:59:51.397Z,93.80
2018-08-28T18:02:55.015Z,94.10
2018-08-28T18:05:58.655Z,94.20
2018-08-28T18:09:02.376Z,94.40
2018-08-28T18:12:06.019Z,94.70
2018-08-28T18:15:09.683Z,94.80
2018-08-28T18:18:13.387Z,95.10
2018-08-28T18:21:17.090Z,95.40
2018-08-28T18:24:20.701Z,95.70
2018-08-28T18:27:24.318Z,96.00
2018-08-28T18:30:27.947Z,96.40
2018-08-28T18:33:31.574Z,96.80
2018-08-28T18:36:35.178Z,96.80
2018-08-28T18:39:38.795Z,97.10
2018-08-28T18:42:42.509Z,97.60
2018-08-28T18:45:46.142Z,97.60
2018-08-28T18:48:49.813Z,97.70
2018-08-28T18:51:53.527Z,98.10
2018-08-28T18:54:57.135Z,98.00
2018-08-28T18:58:00.793Z,98.00
2018-08-28T19:01:04.407Z,98.40
2018-08-28T19:04:08.089Z,98.70
2018-08-28T19:07:11.710Z,98.80
2018-08-28T19:10:15.481Z,99.00
2018-08-28T19:13:19.121Z,99.10
2018-08-28T19:16:22.770Z,99.30
2018-08-28T19:19:26.451Z,99.40
2018-08-28T19:22:30.123Z,99.60
2018-08-28T19:25:33.750Z,99.70
2018-08-28T19:28:37.490Z,99.90
2018-08-28T19:31:41.093Z,99.90
2018-08-28T19:34:44.699Z,99.90
2018-08-28T19:37:48.358Z,99.90
2018-08-28T19:40:51.971Z,99.90
2018-08-28T19:43:55.691Z,99.90
2018-08-28T19:46:59.326Z,99.90
2018-08-28T19:50:02.961Z,99.90
2018-08-28T19:53:06.582Z,99.90
2018-08-28T19:56:10.524Z,99.90
2018-08-28T19:59:14.157Z,99.90
2018-08-28T20:02:17.770Z,99.90
2018-08-28T20:05:21.394Z,99.90
2018-08-28T20:08:25.040Z,99.90
2018-08-28T20:11:28.671Z,99.90
2018-08-28T20:14:32.334Z,99.90
2018-08-28T20:17:35.917Z,99.90
2018-08-28T20:20:39.599Z,99.90
2018-08-28T20:23:43.174Z,99.90
2018-08-28T20:26:46.821Z,99.90
2018-08-28T20:29:50.499Z,99.90
2018-08-28T20:32:54.263Z,99.90
2018-08-28T20:35:57.873Z,99.90
2018-08-28T20:39:01.511Z,99.90
2018-08-28T20:42:05.282Z,99.90
2018-08-28T20:45:08.917Z,99.90
2018-08-28T20:48:12.530Z,99.90
2018-08-28T20:51:16.185Z,99.90
2018-08-28T20:54:19.785Z,99.90
2018-08-28T20:57:23.463Z,99.90
2018-08-28T21:00:28.502Z,99.90
2018-08-28T21:03:32.128Z,99.90
2018-08-28T21:06:35.798Z,99.90
2018-08-28T21:09:39.356Z,99.90
2018-08-28T21:12:43.013Z,99.90
2018-08-28T21:15:46.720Z,99.90
2018-08-28T21:18:50.363Z,99.90
2018-08-28T21:21:54.091Z,99.90
2018-08-28T21:24:57.678Z,99.90
2018-08-28T21:28:01.296Z,99.90
2018-08-28T21:31:04.999Z,99.90
2018-08-28T21:34:08.582Z,99.90
2018-08-28T21:37:12.205Z,99.90
2018-08-28T21:40:15.835Z,99.90
2018-08-28T21:43:19.459Z,99.90
2018-08-28T21:46:23.074Z,99.90
2018-08-28T21:49:26.710Z,99.90
2018-08-28T21:52:30.370Z,99.90
2018-08-28T21:55:34.018Z,99.90
2018-08-28T21:58:37.777Z,99.90
2018-08-28T22:01:41.422Z,99.90
2018-08-28T22:04:45.026Z,99.90
2018-08-28T22:07:48.660Z,99.90
2018-08-28T22:10:52.273Z,99.90
2018-08-28T22:13:55.922Z,99.90
2018-08-28T22:16:59.541Z,99.90
2018-08-28T22:20:03.182Z,99.90
2018-08-28T22:23:06.938Z,99.90
2018-08-28T22:26:10.578Z,99.90
2018-08-28T22:29:14.195Z,99.90
2018-08-28T22:32:17.955Z,99.90
2018-08-28T22:35:21.567Z,99.90
2018-08-28T22:38:25.178Z,99.90
2018-08-28T22:41:28.803Z,99.90
2018-08-28T22:44:32.425Z,99.90
2018-08-28T22:47:36.059Z,99.90
2018-08-28T22:50:39.685Z,99.90
2018-08-28T22:53:43.294Z,99.90
2018-08-28T22:56:46.909Z,99.90
2018-08-28T22:59:50.581Z,99.90
2018-08-28T23:02:55.184Z,99.90
2018-08-28T23:05:58.807Z,99.90
2018-08-28T23:09:02.438Z,99.90
2018-08-28T23:12:06.068Z,99.90
2018-08-28T23:15:09.711Z,99.90
2018-08-28T23:18:13.354Z,99.90
2018-08-28T23:21:17.021Z,99.90
2018-08-28T23:24:20.919Z,99.90
2018-08-28T23:27:24.522Z,99.90
2018-08-28T23:30:28.145Z,99.90
2018-08-28T23:33:31.786Z,99.90
2018-08-28T23:36:35.394Z,99.90
2018-08-28T23:39:39.013Z,99.90
2018-08-28T23:42:42.620Z,99.90
2018-08-28T23:45:46.247Z,99.90
2018-08-28T23:48:49.869Z,99.90
2018-08-28T23:51:53.641Z,99.90
2018-08-28T23:54:57.230Z,99.90
2018-08-28T23:58:00.949Z,99.90
